createdAt,value
2018-10-06T00:01:18.058Z,75.38
2018-10-06T00:03:45.377Z,75.17
2018-10-06T00:06:12.601Z,75.11
2018-10-06T00:08:39.829Z,76.05
2018-10-06T00:11:06.973Z,75.28
2018-10-06T00:13:34.233Z,75.54
2018-10-06T00:16:01.460Z,75.04
2018-10-06T00:18:28.746Z,75.89
2018-10-06T00:20:55.961Z,75.64
2018-10-06T00:23:23.111Z,75.29
2018-10-06T00:25:50.285Z,75.29
2018-10-06T00:28:17.493Z,75.49
2018-10-06T00:30:44.729Z,75.40
2018-10-06T00:33:11.906Z,75.26
2018-10-06T00:35:39.417Z,75.20
2018-10-06T00:38:06.827Z,74.83
2018-10-06T00:40:34.011Z,75.71
2018-10-06T00:43:01.266Z,75.14
2018-10-06T00:45:28.463Z,76.14
2018-10-06T00:47:55.741Z,76.40
2018-10-06T00:50:23.218Z,75.97
2018-10-06T00:52:50.513Z,75.37
2018-10-06T00:55:17.686Z,76.18
2018-10-06T00:57:45.096Z,75.31
2018-10-06T01:00:12.304Z,75.92
2018-10-06T01:02:39.434Z,76.75
2018-10-06T01:05:07.370Z,77.04
2018-10-06T01:07:34.620Z,76.15
2018-10-06T01:10:01.823Z,76.04
2018-10-06T01:12:29.204Z,75.80
2018-10-06T01:14:56.420Z,75.62
2018-10-06T01:17:23.573Z,75.64
2018-10-06T01:19:50.701Z,75.43
2018-10-06T01:22:17.946Z,75.80
2018-10-06T01:24:45.142Z,75.77
2018-10-06T01:27:12.424Z,75.98
2018-10-06T01:29:39.605Z,75.83
2018-10-06T01:32:06.782Z,75.40
2018-10-06T01:34:34.270Z,76.50
2018-10-06T01:37:01.658Z,76.04
2018-10-06T01:39:29.400Z,76.27
2018-10-06T01:41:56.697Z,76.45
2018-10-06T01:44:23.894Z,76.15
2018-10-06T01:46:51.487Z,75.65
2018-10-06T01:49:19.088Z,76.13
2018-10-06T01:51:46.243Z,76.43
2018-10-06T01:54:13.481Z,75.71
2018-10-06T01:56:40.684Z,75.81
2018-10-06T01:59:07.996Z,75.75
2018-10-06T02:01:35.495Z,75.97
2018-10-06T02:04:02.831Z,75.83
2018-10-06T02:06:30.018Z,75.78
2018-10-06T02:08:57.272Z,76.79
2018-10-06T02:11:24.483Z,77.50
2018-10-06T02:13:51.944Z,76.80
2018-10-06T02:16:19.373Z,76.83
2018-10-06T02:18:46.546Z,76.67
2018-10-06T02:21:13.860Z,76.08
2018-10-06T02:23:41.031Z,76.61
2018-10-06T02:26:08.306Z,76.90
2018-10-06T02:28:35.480Z,77.01
2018-10-06T02:31:03.446Z,75.95
2018-10-06T02:33:30.681Z,76.49
2018-10-06T02:35:57.830Z,76.49
2018-10-06T02:38:25.562Z,75.84
2018-10-06T02:40:52.702Z,76.14
2018-10-06T02:43:19.889Z,76.33
2018-10-06T02:45:47.249Z,76.03
2018-10-06T02:48:14.455Z,76.17
2018-10-06T02:50:41.654Z,76.52
2018-10-06T02:53:08.766Z,75.90
2018-10-06T02:55:36.829Z,75.65
2018-10-06T02:58:03.957Z,75.75
2018-10-06T03:00:31.393Z,75.32
2018-10-06T03:02:58.585Z,74.92
2018-10-06T03:05:25.822Z,75.21
2018-10-06T03:07:52.989Z,75.32
2018-10-06T03:10:20.233Z,75.26
2018-10-06T03:12:47.400Z,74.89
2018-10-06T03:15:14.562Z,75.57
2018-10-06T03:17:42.547Z,75.93
2018-10-06T03:20:09.802Z,76.22
2018-10-06T03:22:36.961Z,75.72
2018-10-06T03:25:04.171Z,75.96
2018-10-06T03:27:31.357Z,75.77
2018-10-06T03:29:58.551Z,75.47
2018-10-06T03:32:25.795Z,75.96
2018-10-06T03:34:52.963Z,75.21
2018-10-06T03:37:20.410Z,75.98
2018-10-06T03:39:47.559Z,75.93
2018-10-06T03:42:15.077Z,75.48
2018-10-06T03:44:42.226Z,75.44
2018-10-06T03:47:09.504Z,76.13
2018-10-06T03:49:36.669Z,75.29
2018-10-06T03:52:03.878Z,75.01
2018-10-06T03:54:31.030Z,74.41
2018-10-06T03:56:58.340Z,75.03
2018-10-06T03:59:25.853Z,75.75
2018-10-06T04:01:54.736Z,76.00
2018-10-06T04:04:22.551Z,76.25
2018-10-06T04:06:49.835Z,76.30
2018-10-06T04:09:17.180Z,76.19
2018-10-06T04:11:44.694Z,75.91
2018-10-06T04:14:12.042Z,76.23
2018-10-06T04:16:39.402Z,75.87
2018-10-06T04:19:06.656Z,76.06
2018-10-06T04:21:45.314Z,75.82
2018-10-06T04:24:12.921Z,75.45
2018-10-06T04:26:40.412Z,75.43
2018-10-06T04:29:08.378Z,75.74
2018-10-06T04:31:35.737Z,75.97
2018-10-06T04:34:03.034Z,76.48
2018-10-06T04:36:31.095Z,75.62
2018-10-06T04:38:58.407Z,76.12
2018-10-06T04:41:25.873Z,76.14
2018-10-06T04:43:53.133Z,75.66
2018-10-06T04:46:20.437Z,76.32
2018-10-06T04:48:47.722Z,76.16
2018-10-06T04:51:15.456Z,76.48
2018-10-06T04:53:42.737Z,76.29
2018-10-06T04:56:10.077Z,75.92
2018-10-06T04:58:37.423Z,76.58
2018-10-06T05:01:04.704Z,76.65
2018-10-06T05:03:32.099Z,76.28
2018-10-06T05:05:59.314Z,76.08
2018-10-06T05:08:26.749Z,76.60
2018-10-06T05:10:54.070Z,76.30
2018-10-06T05:13:21.607Z,76.79
2018-10-06T05:15:48.996Z,76.32
2018-10-06T05:18:16.317Z,76.22
2018-10-06T05:20:43.563Z,76.24
2018-10-06T05:23:11.034Z,75.49
2018-10-06T05:25:38.257Z,74.74
2018-10-06T05:28:05.486Z,75.37
2018-10-06T05:30:32.813Z,75.53
2018-10-06T05:33:00.046Z,75.25
2018-10-06T05:35:27.602Z,75.61
2018-10-06T05:37:54.863Z,75.46
2018-10-06T05:40:22.130Z,76.07
2018-10-06T05:42:49.495Z,76.58
2018-10-06T05:45:16.688Z,75.76
2018-10-06T05:47:43.868Z,75.87
2018-10-06T05:50:11.035Z,75.57
2018-10-06T05:52:38.313Z,75.08
2018-10-06T05:55:05.465Z,75.10
2018-10-06T05:57:32.648Z,74.66
2018-10-06T05:59:59.794Z,74.38
2018-10-06T06:02:26.998Z,74.28
2018-10-06T06:04:54.227Z,74.70
2018-10-06T06:07:21.525Z,75.06
2018-10-06T06:09:48.984Z,75.07
2018-10-06T06:12:16.190Z,74.84
2018-10-06T06:14:43.385Z,74.89
2018-10-06T06:17:10.573Z,74.81
2018-10-06T06:19:37.763Z,74.68
2018-10-06T06:22:05.065Z,75.37
2018-10-06T06:24:32.236Z,75.21
2018-10-06T06:26:59.429Z,74.45
2018-10-06T06:29:26.595Z,74.83
2018-10-06T06:31:53.776Z,74.88
2018-10-06T06:34:20.934Z,74.75
2018-10-06T06:36:48.077Z,74.14
2018-10-06T06:39:15.398Z,73.85
2018-10-06T06:41:42.625Z,74.46
2018-10-06T06:44:09.959Z,74.55
2018-10-06T06:46:36.980Z,74.65
2018-10-06T06:49:04.302Z,74.21
2018-10-06T06:51:31.585Z,74.06
2018-10-06T06:53:58.880Z,74.39
2018-10-06T06:56:26.040Z,74.04
2018-10-06T06:58:53.362Z,74.50
2018-10-06T07:01:20.502Z,74.66
2018-10-06T07:03:48.522Z,74.64
2018-10-06T07:06:16.079Z,75.00
2018-10-06T07:08:43.504Z,74.10
2018-10-06T07:11:10.729Z,74.34
2018-10-06T07:13:38.164Z,74.69
2018-10-06T07:16:05.603Z,74.27
2018-10-06T07:18:33.091Z,74.28
2018-10-06T07:21:00.214Z,73.80
2018-10-06T07:23:27.381Z,73.34
2018-10-06T07:25:54.789Z,73.64
2018-10-06T07:28:22.063Z,73.02
2018-10-06T07:30:49.210Z,72.36
2018-10-06T07:33:16.360Z,72.67
2018-10-06T07:35:43.563Z,71.99
2018-10-06T07:38:10.822Z,71.45
2018-10-06T07:40:38.059Z,70.99
2018-10-06T07:43:05.197Z,70.87
2018-10-06T07:45:32.374Z,70.61
2018-10-06T07:47:59.552Z,70.45
2018-10-06T07:50:26.845Z,70.64
2018-10-06T07:52:53.992Z,70.66
2018-10-06T07:55:21.181Z,70.50
2018-10-06T07:57:48.385Z,69.68
2018-10-06T08:00:15.588Z,69.76
2018-10-06T08:02:42.918Z,69.35
2018-10-06T08:05:10.090Z,68.99
2018-10-06T08:07:37.298Z,68.82
2018-10-06T08:10:04.494Z,69.01
2018-10-06T08:12:31.686Z,68.48
2018-10-06T08:14:58.863Z,68.69
2018-10-06T08:17:26.145Z,68.66
2018-10-06T08:19:53.374Z,68.55
2018-10-06T08:22:20.604Z,67.79
2018-10-06T08:24:47.899Z,67.57
2018-10-06T08:27:15.112Z,67.67
2018-10-06T08:29:42.304Z,67.68
2018-10-06T08:32:10.413Z,67.88
2018-10-06T08:34:38.117Z,67.33
2018-10-06T08:37:05.311Z,66.69
2018-10-06T08:39:32.453Z,66.85
2018-10-06T08:42:00.191Z,67.02
2018-10-06T08:44:27.430Z,66.25
2018-10-06T08:46:54.742Z,66.25
2018-10-06T08:49:22.049Z,66.40
2018-10-06T08:51:49.401Z,66.75
2018-10-06T08:54:16.619Z,66.54
2018-10-06T08:56:44.781Z,66.75
2018-10-06T08:59:12.199Z,67.81
2018-10-06T09:01:39.427Z,67.72
2018-10-06T09:04:07.033Z,67.79
2018-10-06T09:06:34.202Z,67.04
2018-10-06T09:09:01.735Z,66.06
2018-10-06T09:11:28.968Z,64.95
2018-10-06T09:13:56.443Z,65.12
2018-10-06T09:16:23.669Z,64.22
2018-10-06T09:18:50.908Z,63.68
2018-10-06T09:21:18.195Z,62.42
2018-10-06T09:23:45.350Z,62.02
2018-10-06T09:26:12.563Z,60.78
2018-10-06T09:28:39.808Z,61.34
2018-10-06T09:31:07.026Z,59.70
2018-10-06T09:33:40.478Z,59.21
2018-10-06T09:36:07.755Z,58.25
2018-10-06T09:38:34.942Z,58.09
2018-10-06T09:41:02.133Z,57.02
2018-10-06T09:43:29.284Z,57.57
2018-10-06T09:45:56.450Z,56.57
2018-10-06T09:48:23.869Z,56.68
2018-10-06T09:50:51.128Z,56.59
2018-10-06T09:53:18.273Z,56.49
2018-10-06T09:55:45.715Z,57.19
2018-10-06T09:58:12.881Z,56.40
2018-10-06T10:00:45.827Z,56.72
2018-10-06T10:03:18.726Z,56.27
2018-10-06T10:05:51.633Z,56.89
2018-10-06T10:08:18.835Z,56.59
2018-10-06T10:10:46.923Z,56.18
2018-10-06T10:13:14.226Z,56.60
2018-10-06T10:15:41.538Z,56.60
2018-10-06T10:18:09.098Z,56.67
2018-10-06T10:20:36.322Z,56.24
2018-10-06T10:23:03.617Z,56.43
2018-10-06T10:25:30.907Z,56.40
2018-10-06T10:27:58.491Z,56.46
2018-10-06T10:30:25.751Z,55.75
2018-10-06T10:32:53.073Z,56.15
2018-10-06T10:35:20.257Z,56.23
2018-10-06T10:37:49.401Z,56.08
2018-10-06T10:40:16.779Z,56.33
2018-10-06T10:42:44.037Z,55.78
2018-10-06T10:45:11.263Z,55.31
2018-10-06T10:47:39.953Z,55.85
2018-10-06T10:50:07.311Z,55.09
2018-10-06T10:52:34.569Z,55.77
2018-10-06T10:55:01.775Z,55.59
2018-10-06T10:57:29.315Z,54.40
2018-10-06T10:59:56.665Z,54.96
2018-10-06T11:02:23.712Z,54.84
2018-10-06T11:04:50.984Z,54.41
2018-10-06T11:07:18.194Z,54.92
2018-10-06T11:09:45.481Z,54.76
2018-10-06T11:12:12.802Z,54.80
2018-10-06T11:14:39.994Z,54.49
2018-10-06T11:17:07.302Z,53.94
2018-10-06T11:19:34.491Z,54.24
2018-10-06T11:22:01.668Z,54.01
2018-10-06T11:24:28.827Z,54.31
2018-10-06T11:26:56.051Z,54.26
2018-10-06T11:29:23.252Z,54.37
2018-10-06T11:31:50.459Z,54.21
2018-10-06T11:34:17.676Z,53.13
2018-10-06T11:36:44.873Z,53.14
2018-10-06T11:39:12.200Z,52.90
2018-10-06T11:41:39.339Z,53.52
2018-10-06T11:44:06.805Z,52.52
2018-10-06T11:46:34.070Z,53.19
2018-10-06T11:49:01.235Z,53.11
2018-10-06T11:51:28.440Z,52.85
2018-10-06T11:53:55.700Z,52.63
2018-10-06T11:56:22.881Z,51.97
2018-10-06T11:58:50.098Z,51.69
2018-10-06T12:01:17.270Z,52.28
2018-10-06T12:03:44.585Z,51.34
2018-10-06T12:06:11.894Z,51.73
2018-10-06T12:08:39.087Z,51.19
2018-10-06T12:11:06.777Z,51.24
2018-10-06T12:13:34.248Z,51.32
2018-10-06T12:16:01.504Z,52.83
2018-10-06T12:18:28.666Z,50.17
2018-10-06T12:20:56.015Z,52.33
2018-10-06T12:23:23.195Z,52.50
2018-10-06T12:25:50.408Z,50.70
2018-10-06T12:28:17.615Z,50.99
2018-10-06T12:30:44.820Z,50.51
2018-10-06T12:33:11.985Z,50.96
2018-10-06T12:35:39.219Z,51.17
2018-10-06T12:38:06.401Z,49.69
2018-10-06T12:40:34.497Z,51.54
2018-10-06T12:43:01.974Z,51.26
2018-10-06T12:45:29.226Z,49.63
2018-10-06T12:47:56.414Z,49.11
2018-10-06T12:50:23.682Z,50.46
2018-10-06T12:52:50.883Z,51.02
2018-10-06T12:55:18.139Z,48.95
2018-10-06T12:57:45.342Z,50.24
2018-10-06T13:00:12.572Z,49.12
2018-10-06T13:02:39.690Z,50.01
2018-10-06T13:05:07.023Z,50.08
2018-10-06T13:07:34.223Z,47.50
2018-10-06T13:10:01.560Z,47.24
2018-10-06T13:12:28.799Z,46.75
2018-10-06T13:14:56.085Z,47.27
2018-10-06T13:17:23.332Z,46.41
2018-10-06T13:19:50.590Z,46.30
2018-10-06T13:22:17.814Z,46.29
2018-10-06T13:24:45.042Z,47.03
2018-10-06T13:27:12.287Z,46.21
2018-10-06T13:29:39.572Z,46.97
2018-10-06T13:32:06.855Z,46.69
2018-10-06T13:34:34.103Z,47.35
2018-10-06T13:37:01.479Z,47.43
2018-10-06T13:39:28.669Z,46.74
2018-10-06T13:41:55.818Z,48.98
2018-10-06T13:44:23.216Z,47.59
2018-10-06T13:46:50.638Z,48.08
2018-10-06T13:49:17.797Z,48.63
2018-10-06T13:51:45.045Z,49.06
2018-10-06T13:54:12.252Z,48.06
2018-10-06T13:56:39.500Z,49.02
2018-10-06T13:59:07.590Z,49.06
2018-10-06T14:01:34.900Z,49.67
2018-10-06T14:04:02.169Z,50.34
2018-10-06T14:06:29.375Z,49.87
2018-10-06T14:08:56.572Z,50.22
2018-10-06T14:11:23.845Z,49.56
2018-10-06T14:13:51.193Z,49.10
2018-10-06T14:16:18.498Z,49.01
2018-10-06T14:18:45.780Z,49.18
2018-10-06T14:21:13.002Z,49.26
2018-10-06T14:23:40.207Z,49.55
2018-10-06T14:26:07.551Z,50.47
2018-10-06T14:28:34.846Z,49.33
2018-10-06T14:31:02.155Z,49.82
2018-10-06T14:33:29.305Z,50.70
2018-10-06T14:35:56.573Z,50.75
2018-10-06T14:38:23.754Z,52.19
2018-10-06T14:40:51.307Z,51.47
2018-10-06T14:43:18.477Z,51.02
2018-10-06T14:45:45.805Z,50.72
2018-10-06T14:48:13.130Z,51.34
2018-10-06T14:50:40.531Z,51.22
2018-10-06T14:53:07.759Z,51.25
2018-10-06T14:55:34.999Z,51.61
2018-10-06T14:58:02.603Z,52.15
2018-10-06T15:00:30.032Z,53.05
2018-10-06T15:02:57.321Z,52.23
2018-10-06T15:05:25.117Z,53.87
2018-10-06T15:07:52.633Z,53.24
2018-10-06T15:10:20.093Z,53.65
2018-10-06T15:12:47.571Z,52.98
2018-10-06T15:15:15.054Z,53.35
2018-10-06T15:17:42.618Z,53.27
2018-10-06T15:20:09.991Z,52.96
2018-10-06T15:22:37.371Z,53.91
2018-10-06T15:25:04.766Z,53.36
2018-10-06T15:27:32.253Z,54.42
2018-10-06T15:29:59.602Z,54.69
2018-10-06T15:32:26.957Z,53.44
2018-10-06T15:34:54.291Z,53.58
2018-10-06T15:37:22.110Z,52.40
2018-10-06T15:39:49.238Z,54.23
2018-10-06T15:42:16.483Z,53.99
2018-10-06T15:44:43.831Z,53.74
2018-10-06T15:47:11.047Z,54.48
2018-10-06T15:49:38.220Z,54.61
2018-10-06T15:52:06.204Z,54.45
2018-10-06T15:54:33.462Z,55.39
2018-10-06T15:57:00.756Z,55.26
2018-10-06T15:59:28.046Z,54.16
2018-10-06T16:01:55.385Z,54.88
2018-10-06T16:04:22.597Z,55.24
2018-10-06T16:06:49.777Z,54.85
2018-10-06T16:09:17.062Z,55.53
2018-10-06T16:11:44.224Z,56.82
2018-10-06T16:14:11.446Z,55.15
2018-10-06T16:16:38.653Z,55.88
2018-10-06T16:19:05.998Z,56.67
2018-10-06T16:21:33.227Z,56.72
2018-10-06T16:24:00.545Z,56.12
2018-10-06T16:26:27.694Z,56.38
2018-10-06T16:28:54.947Z,56.54
2018-10-06T16:31:22.133Z,56.91
2018-10-06T16:33:49.394Z,56.72
2018-10-06T16:36:16.607Z,56.12
2018-10-06T16:38:43.824Z,55.80
2018-10-06T16:41:11.221Z,56.61
2018-10-06T16:43:38.611Z,56.38
2018-10-06T16:46:06.122Z,56.28
2018-10-06T16:48:33.330Z,56.65
2018-10-06T16:51:00.526Z,55.90
2018-10-06T16:53:27.764Z,56.95
2018-10-06T16:55:55.042Z,56.45
2018-10-06T16:58:22.282Z,57.42
2018-10-06T17:00:49.596Z,56.82
2018-10-06T17:03:16.831Z,56.75
2018-10-06T17:05:44.082Z,57.10
2018-10-06T17:08:11.319Z,57.39
2018-10-06T17:10:38.686Z,55.93
2018-10-06T17:13:05.902Z,56.76
2018-10-06T17:15:33.113Z,57.19
2018-10-06T17:18:01.065Z,57.18
2018-10-06T17:20:28.741Z,58.69
2018-10-06T17:22:56.256Z,58.54
2018-10-06T17:25:23.459Z,58.62
2018-10-06T17:27:50.694Z,59.30
2018-10-06T17:30:17.968Z,59.33
2018-10-06T17:32:45.541Z,59.16
2018-10-06T17:35:12.906Z,59.38
2018-10-06T17:37:40.138Z,58.39
2018-10-06T17:40:07.458Z,59.38
2018-10-06T17:42:34.725Z,58.99
2018-10-06T17:45:01.922Z,58.91
2018-10-06T17:47:29.103Z,59.59
2018-10-06T17:49:56.316Z,58.97
2018-10-06T17:52:23.707Z,60.21
2018-10-06T17:54:50.903Z,60.51
2018-10-06T17:57:18.318Z,59.35
2018-10-06T17:59:45.465Z,60.66
2018-10-06T18:02:12.714Z,60.83
2018-10-06T18:04:39.972Z,60.53
2018-10-06T18:07:08.494Z,60.37
2018-10-06T18:09:35.702Z,61.25
2018-10-06T18:12:02.909Z,60.89
2018-10-06T18:14:30.246Z,61.25
2018-10-06T18:16:57.561Z,61.53
2018-10-06T18:19:24.902Z,60.68
2018-10-06T18:21:52.255Z,61.04
2018-10-06T18:24:19.699Z,61.76
2018-10-06T18:26:46.917Z,60.80
2018-10-06T18:29:14.530Z,61.07
2018-10-06T18:31:41.819Z,62.02
2018-10-06T18:34:09.083Z,62.70
2018-10-06T18:36:36.529Z,62.12
2018-10-06T18:39:04.612Z,61.92
2018-10-06T18:41:31.903Z,62.48
2018-10-06T18:43:59.118Z,62.62
2018-10-06T18:46:26.434Z,62.54
2018-10-06T18:48:53.647Z,62.88
2018-10-06T18:51:20.880Z,61.92
2018-10-06T18:53:48.105Z,62.97
2018-10-06T18:56:15.330Z,63.89
2018-10-06T18:58:42.493Z,63.79
2018-10-06T19:01:09.947Z,63.22
2018-10-06T19:03:37.534Z,63.04
2018-10-06T19:06:05.052Z,63.62
2018-10-06T19:08:32.611Z,64.19
2018-10-06T19:11:00.203Z,64.55
2018-10-06T19:13:28.036Z,63.76
2018-10-06T19:15:55.649Z,64.05
2018-10-06T19:18:23.429Z,63.82
2018-10-06T19:20:51.013Z,63.61
2018-10-06T19:23:18.668Z,64.50
2018-10-06T19:25:46.597Z,64.05
2018-10-06T19:28:14.409Z,64.44
2018-10-06T19:30:41.990Z,65.59
2018-10-06T19:33:09.598Z,65.50
2018-10-06T19:35:37.179Z,64.33
2018-10-06T19:38:04.836Z,65.92
2018-10-06T19:40:32.424Z,64.62
2018-10-06T19:43:00.600Z,66.29
2018-10-06T19:45:28.060Z,66.02
2018-10-06T19:47:55.605Z,65.42
2018-10-06T19:50:23.064Z,65.06
2018-10-06T19:52:51.593Z,64.68
2018-10-06T19:55:19.134Z,65.99
2018-10-06T19:57:47.542Z,65.27
2018-10-06T20:00:15.135Z,65.53
2018-10-06T20:02:42.674Z,65.34
2018-10-06T20:05:10.227Z,65.40
2018-10-06T20:07:37.793Z,65.98
2018-10-06T20:10:05.451Z,66.32
2018-10-06T20:12:33.073Z,65.40
2018-10-06T20:15:00.664Z,65.34
2018-10-06T20:17:28.333Z,65.19
2018-10-06T20:19:55.859Z,65.77
2018-10-06T20:22:23.399Z,65.83
2018-10-06T20:24:51.171Z,66.50
2018-10-06T20:27:18.474Z,67.09
2018-10-06T20:29:45.690Z,67.79
2018-10-06T20:32:12.871Z,65.89
2018-10-06T20:34:40.132Z,65.85
2018-10-06T20:37:07.439Z,66.78
2018-10-06T20:39:34.678Z,66.22
2018-10-06T20:42:01.895Z,65.51
2018-10-06T20:44:29.144Z,66.54
2018-10-06T20:46:56.339Z,66.94
2018-10-06T20:49:23.643Z,67.39
2018-10-06T20:51:51.354Z,67.46
2018-10-06T20:54:18.706Z,67.23
2018-10-06T20:56:46.031Z,67.81
2018-10-06T20:59:13.285Z,67.52
2018-10-06T21:01:40.678Z,66.65
2018-10-06T21:04:07.947Z,66.21
2018-10-06T21:06:35.670Z,67.00
2018-10-06T21:09:03.653Z,66.94
2018-10-06T21:11:30.863Z,65.74
2018-10-06T21:13:58.345Z,67.83
2018-10-06T21:16:25.563Z,66.55
2018-10-06T21:18:52.789Z,67.14
2018-10-06T21:21:20.077Z,66.61
2018-10-06T21:23:47.282Z,68.62
2018-10-06T21:26:14.661Z,69.22
2018-10-06T21:28:41.860Z,66.69
2018-10-06T21:31:09.059Z,68.69
2018-10-06T21:33:36.238Z,68.52
2018-10-06T21:36:03.456Z,68.29
2018-10-06T21:38:31.864Z,67.00
2018-10-06T21:40:59.389Z,65.68
2018-10-06T21:43:26.580Z,65.71
2018-10-06T21:45:54.033Z,66.81
2018-10-06T21:48:21.285Z,67.70
2018-10-06T21:50:48.595Z,66.96
2018-10-06T21:53:22.311Z,66.71
2018-10-06T21:55:49.507Z,67.20
2018-10-06T21:58:16.646Z,67.71
2018-10-06T22:00:46.827Z,68.30
2018-10-06T22:03:14.123Z,67.85
2018-10-06T22:05:41.365Z,67.93
2018-10-06T22:08:08.654Z,68.40
2018-10-06T22:10:35.938Z,67.75
2018-10-06T22:13:03.265Z,66.93
2018-10-06T22:15:30.539Z,66.35
2018-10-06T22:20:35.079Z,65.78
2018-10-06T22:23:02.399Z,66.89
2018-10-06T22:25:29.639Z,65.25
2018-10-06T22:27:56.968Z,65.26
2018-10-06T22:30:24.191Z,65.38
2018-10-06T22:32:51.379Z,65.93
2018-10-06T22:35:18.589Z,66.31
2018-10-06T22:37:45.986Z,67.83
2018-10-06T22:40:15.198Z,69.96
2018-10-06T22:42:42.452Z,70.92
2018-10-06T22:45:09.800Z,71.29
2018-10-06T22:47:37.206Z,72.29
2018-10-06T22:50:05.085Z,72.82
2018-10-06T22:52:32.396Z,73.34
2018-10-06T22:54:59.635Z,73.61
2018-10-06T22:57:26.916Z,73.99
2018-10-06T22:59:54.147Z,73.76
2018-10-06T23:02:21.369Z,74.46
2018-10-06T23:04:48.622Z,75.06
2018-10-06T23:07:16.278Z,75.46
2018-10-06T23:09:43.816Z,75.95
2018-10-06T23:12:10.968Z,76.13
2018-10-06T23:14:38.275Z,75.71
2018-10-06T23:17:05.568Z,76.42
2018-10-06T23:19:32.833Z,76.06
2018-10-06T23:22:00.103Z,75.41
2018-10-06T23:24:27.375Z,75.40
2018-10-06T23:26:55.346Z,75.74
2018-10-06T23:29:22.600Z,75.50
2018-10-06T23:31:49.895Z,75.48
2018-10-06T23:34:17.111Z,75.47
2018-10-06T23:36:44.419Z,75.66
2018-10-06T23:39:11.975Z,76.70
2018-10-06T23:41:39.357Z,76.34
2018-10-06T23:44:06.839Z,76.29
2018-10-06T23:46:34.595Z,76.23
2018-10-06T23:49:02.025Z,76.55
2018-10-06T23:51:29.288Z,76.13
2018-10-06T23:53:56.711Z,76.37
2018-10-06T23:56:23.969Z,76.13
2018-10-06T23:58:51.147Z,76.26
